Titania — HKCF6 — position and weather

sailwx.info

Track history (hours):
 
Tides and Currents Weather Stations Pressure Air Temp Water Temp Dewpoint Dewpoint Depression Visibility Wind Speed Wind Dir Waves Ship Positions

Titania

Last reported at 2018-Jun-20 13:17 UTC. Time now 2018-Jun-20 13:32 UTC.
Position N 10°20' W 075°31'.

Length 22 m; draft 2.8 m.

Type: Tug. MMSI: 730070000.

Date/timePositionNaut miles runAvg speedWind from/ knotsBaromVisibWave heightAir tempDewpointWater temp
2018-Jun-20 13:17N 10°20' W 075°31'1 2.0
2018-Jun-20 13:00N 10°20' W 075°31'0 0.7
2018-Jun-20 12:29N 10°20' W 075°31'3 5.9
2018-Jun-20 11:59N 10°23' W 075°32'1 2.1
2018-Jun-20 11:26N 10°24' W 075°31'0 0.0
2018-Jun-20 10:56N 10°24' W 075°31'0 0.0
2018-Jun-20 10:29N 10°24' W 075°31'0 0.0
2018-Jun-20 09:59N 10°24' W 075°31'0 0.0
2018-Jun-20 09:26N 10°24' W 075°31'0 0.0
2018-Jun-20 08:59N 10°24' W 075°31'0 0.0
2018-Jun-20 08:29N 10°24' W 075°31'0 0.0
2018-Jun-20 07:59N 10°24' W 075°31'0 0.0
2018-Jun-20 07:29N 10°24' W 075°31'0 0.0
2018-Jun-20 06:56N 10°24' W 075°31'1 1.4
2018-Jun-20 06:30N 10°24' W 075°32'4 7.6
2018-Jun-20 06:00N 10°20' W 075°31'1 1.3
2018-Jun-20 05:30N 10°20' W 075°31'1 2.6
2018-Jun-20 05:01N 10°21' W 075°31'3 6.2
2018-Jun-20 04:29N 10°24' W 075°31'0 0.0
2018-Jun-20 03:47N 10°24' W 075°31'0 0.0
2018-Jun-20 03:26N 10°24' W 075°31'0 0.0
2018-Jun-20 02:44N 10°24' W 075°31'0 0.0
2018-Jun-20 02:29N 10°24' W 075°31'0 0.0
2018-Jun-20 01:56N 10°24' W 075°31'1 2.9
2018-Jun-20 01:30N 10°23' W 075°32'4 7.8
2018-Jun-20 00:58N 10°19' W 075°31'0 0.5
2018-Jun-20 00:29N 10°19' W 075°31'0 0.0
2018-Jun-19 23:59N 10°19' W 075°31'0 0.0
2018-Jun-19 23:29N 10°19' W 075°31'0 0.0
2018-Jun-19 22:59N 10°19' W 075°31'0 0.0
2018-Jun-19 22:29N 10°19' W 075°31'0 0.0
2018-Jun-19 21:59N 10°19' W 075°31'0 0.0
2018-Jun-19 21:29N 10°19' W 075°31'0 0.0
2018-Jun-19 20:59N 10°19' W 075°31'0 0.0
2018-Jun-19 20:29N 10°19' W 075°31'0 0.0
2018-Jun-19 19:59N 10°19' W 075°31'0 0.0
2018-Jun-19 19:29N 10°19' W 075°31'0 0.0
2018-Jun-19 18:59N 10°19' W 075°31'0 0.0
2018-Jun-19 18:29N 10°19' W 075°31'0 0.0
2018-Jun-19 17:59N 10°19' W 075°31'0 0.0
2018-Jun-19 17:29N 10°19' W 075°31'0 0.0
2018-Jun-19 16:59N 10°19' W 075°31'0 0.0
2018-Jun-19 16:29N 10°19' W 075°31'0 0.0
2018-Jun-19 15:59N 10°19' W 075°31'0 0.0
2018-Jun-19 15:29N 10°19' W 075°31'0 0.0
2018-Jun-19 14:59N 10°19' W 075°31'0 0.0
2018-Jun-19 14:29N 10°19' W 075°31'0 0.0
2018-Jun-19 13:59N 10°19' W 075°31'0 0.0
2018-Jun-19 13:29N 10°19' W 075°31'0 0.0
2018-Jun-19 12:59N 10°19' W 075°31'0 0.0
2018-Jun-19 12:29N 10°19' W 075°31'0 0.0
2018-Jun-19 11:59N 10°19' W 075°31'1 1.9
2018-Jun-19 11:30N 10°18' W 075°30'0 0.7
2018-Jun-19 11:00N 10°19' W 075°31'1 2.2
2018-Jun-19 10:30N 10°20' W 075°31'3 6.7
2018-Jun-19 09:59N 10°23' W 075°32'1 0.2
2018-Jun-19 02:48N 10°24' W 075°31'2 4.6
2018-Jun-19 02:27N 10°22' W 075°32'3 6.4
2018-Jun-19 01:59N 10°20' W 075°31'0 0.2
2018-Jun-19 01:25N 10°20' W 075°31'1 2.5
2018-Jun-19 01:00N 10°19' W 075°31'0 0.3
2018-Jun-19 00:28N 10°19' W 075°31'0 0.0
2018-Jun-18 23:58N 10°19' W 075°31'0 0.0
2018-Jun-18 23:28N 10°19' W 075°31'0 0.0
2018-Jun-18 22:58N 10°19' W 075°31'0 0.0
2018-Jun-18 22:28N 10°19' W 075°31'0 0.0
2018-Jun-18 21:58N 10°19' W 075°31'0 0.0
2018-Jun-18 21:28N 10°19' W 075°31'0 0.0
2018-Jun-18 20:58N 10°19' W 075°31'0 0.0
2018-Jun-18 20:28N 10°19' W 075°31'0 0.0
2018-Jun-18 19:58N 10°19' W 075°31'0 0.0
2018-Jun-18 19:28N 10°19' W 075°31'0 0.0
2018-Jun-18 18:58N 10°19' W 075°31'0 0.0
2018-Jun-18 18:28N 10°19' W 075°31'0 0.0
2018-Jun-18 17:58N 10°19' W 075°31'0 0.0
2018-Jun-18 17:28N 10°19' W 075°31'0 0.0
2018-Jun-18 16:58N 10°19' W 075°31'0 0.0
2018-Jun-18 16:28N 10°19' W 075°31'0 0.0
2018-Jun-18 15:58N 10°19' W 075°31'0 0.0
2018-Jun-18 15:28N 10°19' W 075°31'0 0.0
2018-Jun-18 14:58N 10°19' W 075°31'0 0.0
2018-Jun-18 14:28N 10°19' W 075°31'0 1.0
2018-Jun-18 14:00N 10°19' W 075°31'1 1.0
2018-Jun-18 13:28N 10°18' W 075°30'2 5.1
2018-Jun-18 13:00N 10°20' W 075°31'4 7.5
2018-Jun-18 12:30N 10°24' W 075°32'0 0.8
2018-Jun-18 11:56N 10°24' W 075°31'0 0.0
2018-Jun-18 11:20N 10°24' W 075°31'0 0.0
2018-Jun-18 10:59N 10°24' W 075°31'0 0.0
2018-Jun-18 10:20N 10°24' W 075°31'0 0.0
2018-Jun-18 09:56N 10°24' W 075°31'0 0.0
2018-Jun-18 09:23N 10°24' W 075°31'0 0.0
2018-Jun-18 08:32N 10°24' W 075°31'0 0.0
2018-Jun-18 07:35N 10°24' W 075°31'0 0.0
2018-Jun-18 07:23N 10°24' W 075°31'0 0.0
2018-Jun-18 06:56N 10°24' W 075°31'0 0.0
2018-Jun-18 06:08N 10°24' W 075°31'0 0.0
2018-Jun-18 05:59N 10°24' W 075°31'0 0.0
2018-Jun-18 05:26N 10°24' W 075°31'0 0.0
2018-Jun-18 04:56N 10°24' W 075°31'0 0.0
2018-Jun-18 04:29N 10°24' W 075°31'0 0.0
2018-Jun-18 03:59N 10°24' W 075°31'0 0.0
2018-Jun-18 03:29N 10°24' W 075°31'0 0.0
2018-Jun-18 02:53N 10°24' W 075°31'0 0.0
2018-Jun-18 02:26N 10°24' W 075°31'0 0.0
2018-Jun-18 01:50N 10°24' W 075°31'2 4.7
2018-Jun-18 01:28N 10°22' W 075°32'3 5.4
2018-Jun-18 00:58N 10°20' W 075°31'0 0.0
2018-Jun-18 00:28N 10°20' W 075°31'0 0.0
2018-Jun-17 23:58N 10°20' W 075°31'0 0.0
2018-Jun-17 23:28N 10°20' W 075°31'0 0.0
2018-Jun-17 22:58N 10°20' W 075°31'0 0.0
2018-Jun-17 22:28N 10°20' W 075°31'0 0.0
2018-Jun-17 21:58N 10°20' W 075°31'0 0.0
2018-Jun-17 21:28N 10°20' W 075°31'0 0.0
2018-Jun-17 20:58N 10°20' W 075°31'0 0.0
2018-Jun-17 20:28N 10°20' W 075°31'0 0.0
2018-Jun-17 19:58N 10°20' W 075°31'0 0.0
2018-Jun-17 19:28N 10°20' W 075°31'0 0.0
2018-Jun-17 18:58N 10°20' W 075°31'0 0.0
2018-Jun-17 18:28N 10°20' W 075°31'0 0.5
2018-Jun-17 18:00N 10°20' W 075°31'  
2018-Jun-14 09:20N 10°24' W 075°31'1 1.9
2018-Jun-14 08:58N 10°24' W 075°32'4 8.2
2018-Jun-14 08:30N 10°20' W 075°31'2 3.8
2018-Jun-14 08:00N 10°18' W 075°30'4 7.1
2018-Jun-14 07:30N 10°22' W 075°32'2 1.2
2018-Jun-14 05:36N 10°24' W 075°31'0 0.0
2018-Jun-14 05:27N 10°24' W 075°31'0 0.0
2018-Jun-14 05:00N 10°24' W 075°31'0 0.0
2018-Jun-14 04:30N 10°24' W 075°31'0 0.0
2018-Jun-14 03:51N 10°24' W 075°31'0 0.0
2018-Jun-14 03:30N 10°24' W 075°31'0 0.0
2018-Jun-14 02:57N 10°24' W 075°31'0 0.0
2018-Jun-14 02:27N 10°24' W 075°31'0 0.0
2018-Jun-14 01:57N 10°24' W 075°31'0 0.0
2018-Jun-14 01:30N 10°24' W 075°31'0 0.0
2018-Jun-14 00:57N 10°24' W 075°31'0 0.0
2018-Jun-14 00:27N 10°24' W 075°31'0 0.0
2018-Jun-13 23:57N 10°24' W 075°31'0 0.0
2018-Jun-13 23:27N 10°24' W 075°31'0 0.0
2018-Jun-13 22:51N 10°24' W 075°31'0 0.0
2018-Jun-13 22:30N 10°24' W 075°31'0 0.0
2018-Jun-13 21:51N 10°24' W 075°31'0 0.0
2018-Jun-13 21:27N 10°24' W 075°31'0 0.0
2018-Jun-13 20:51N 10°24' W 075°31'0 0.0
2018-Jun-13 20:21N 10°24' W 075°31'0 0.0
2018-Jun-13 19:39N 10°24' W 075°31'0 0.0
2018-Jun-13 19:27N 10°24' W 075°31'0 0.0
2018-Jun-13 18:57N 10°24' W 075°31'0 0.0
2018-Jun-13 18:27N 10°24' W 075°31'0 0.0
2018-Jun-13 17:57N 10°24' W 075°31'0 0.0
2018-Jun-13 17:21N 10°24' W 075°31'0 0.4
2018-Jun-13 16:58N 10°24' W 075°32'3 6.9
2018-Jun-13 16:30N 10°21' W 075°31'3 4.8
2018-Jun-13 15:59N 10°18' W 075°30'1 1.7
2018-Jun-13 15:28N 10°19' W 075°31'0 1.0
2018-Jun-13 14:58N 10°20' W 075°31'0 0.8
2018-Jun-13 14:29N 10°20' W 075°31'0 0.5
2018-Jun-13 13:59N 10°20' W 075°31'0 0.7
2018-Jun-13 13:29N 10°20' W 075°31'0 0.5
2018-Jun-13 12:56N 10°20' W 075°31'1 2.7
2018-Jun-13 12:29N 10°21' W 075°31'3 6.6
2018-Jun-13 12:00N 10°24' W 075°32'1 2.1
2018-Jun-13 11:29N 10°24' W 075°32'0 0.0
2018-Jun-13 10:59N 10°24' W 075°32'0 0.0
2018-Jun-13 10:29N 10°24' W 075°32'0 0.0
2018-Jun-13 09:59N 10°24' W 075°32'0 0.0
2018-Jun-13 09:29N 10°24' W 075°32'0 0.0
2018-Jun-13 08:59N 10°24' W 075°32'0 0.0
2018-Jun-13 08:29N 10°24' W 075°32'0 0.0
2018-Jun-13 07:59N 10°24' W 075°32'0 0.0
2018-Jun-13 07:29N 10°24' W 075°32'0 0.0
2018-Jun-13 06:59N 10°24' W 075°32'0 0.0
2018-Jun-13 06:29N 10°24' W 075°32'0 0.0
2018-Jun-13 05:59N 10°24' W 075°32'0 0.0
2018-Jun-13 05:29N 10°24' W 075°32'0 0.0
2018-Jun-13 04:53N 10°24' W 075°32'0 0.0
2018-Jun-13 04:29N 10°24' W 075°32'0 0.0
2018-Jun-13 03:59N 10°24' W 075°32'0 0.0
2018-Jun-13 03:26N 10°24' W 075°32'0 0.0
2018-Jun-13 02:59N 10°24' W 075°32'0 0.0
2018-Jun-13 02:29N 10°24' W 075°32'0 0.0
2018-Jun-13 01:59N 10°24' W 075°32'0 0.0
2018-Jun-13 01:29N 10°24' W 075°32'0 0.0
2018-Jun-13 00:59N 10°24' W 075°32'0 0.0
2018-Jun-13 00:29N 10°24' W 075°32'0 0.0
2018-Jun-12 23:59N 10°24' W 075°32'0 0.0
2018-Jun-12 23:29N 10°24' W 075°32'0 0.0
2018-Jun-12 23:00N 10°24' W 075°32'0 0.1
2018-Jun-12 21:42N 10°24' W 075°33'0 0.0
2018-Jun-12 21:18N 10°24' W 075°33'0 0.0
2018-Jun-12 21:00N 10°24' W 075°33'0 0.0
2018-Jun-12 20:27N 10°24' W 075°33'0 0.0
2018-Jun-12 20:00N 10°24' W 075°33'0 0.0
2018-Jun-12 19:24N 10°24' W 075°33'0 0.0
2018-Jun-12 18:51N 10°24' W 075°33'0 0.0
2018-Jun-12 18:30N 10°24' W 075°33'0 0.0
2018-Jun-12 18:00N 10°24' W 075°33'0 1.0
2018-Jun-12 17:30N 10°24' W 075°32'1 1.3
2018-Jun-12 16:55N 10°24' W 075°31'0 0.0
2018-Jun-12 16:30N 10°24' W 075°31'0 0.1
2018-Jun-12 15:58N 10°24' W 075°31'4 1.6
2018-Jun-12 13:19N 10°20' W 075°31'1 2.5
2018-Jun-12 13:00N 10°20' W 075°31'1 2.6
2018-Jun-12 12:29N 10°19' W 075°31'0 0.5
2018-Jun-12 11:57N 10°18' W 075°31'0 0.0
2018-Jun-12 11:30N 10°18' W 075°31'0 0.0
2018-Jun-12 11:00N 10°18' W 075°31'0 0.0
2018-Jun-12 10:30N 10°18' W 075°31'0 0.0
2018-Jun-12 10:00N 10°18' W 075°31'0 0.0
2018-Jun-12 09:30N 10°18' W 075°31'0 0.0
2018-Jun-12 09:00N 10°18' W 075°31'0 0.0
2018-Jun-12 08:30N 10°18' W 075°31'0 0.0
2018-Jun-12 07:57N 10°18' W 075°31'0 0.0
2018-Jun-12 07:27N 10°18' W 075°31'0 0.0
2018-Jun-12 07:00N 10°18' W 075°31'0 0.0
2018-Jun-12 06:27N 10°18' W 075°31'0 0.0
2018-Jun-12 06:00N 10°18' W 075°31'0 0.0
2018-Jun-12 05:27N 10°18' W 075°31'0 0.0
2018-Jun-12 05:00N 10°18' W 075°31'0 0.0
2018-Jun-12 04:30N 10°18' W 075°31'0 0.0
2018-Jun-12 04:00N 10°18' W 075°31'0 0.0
2018-Jun-12 03:30N 10°18' W 075°31'0 0.2
2018-Jun-12 03:00N 10°18' W 075°30'0 0.3
2018-Jun-12 02:30N 10°18' W 075°30'1 1.8
2018-Jun-12 01:58N 10°19' W 075°31'1 1.4
2018-Jun-12 01:31N 10°20' W 075°31'4 8.2
2018-Jun-12 00:59N 10°24' W 075°32'1 0.2
2018-Jun-11 19:46N 10°24' W 075°31'1 5.0
2018-Jun-11 19:30N 10°23' W 075°33'4 7.6
2018-Jun-11 19:00N 10°20' W 075°31'0 0.6
2018-Jun-11 18:28N 10°20' W 075°31'0 0.0
2018-Jun-11 17:58N 10°20' W 075°31'0 0.0
2018-Jun-11 17:28N 10°20' W 075°31'0 0.0
2018-Jun-11 16:58N 10°20' W 075°31'0 0.0
2018-Jun-11 16:28N 10°20' W 075°31'0 0.0
2018-Jun-11 15:58N 10°20' W 075°31'0 0.0
2018-Jun-11 15:28N 10°20' W 075°31'0 0.0
2018-Jun-11 14:58N 10°20' W 075°31'0 0.0
2018-Jun-11 14:28N 10°20' W 075°31'0 0.0
2018-Jun-11 13:58N 10°20' W 075°31'0 0.0
2018-Jun-11 13:28N 10°20' W 075°31'  
Track history (hours):
 
Tides and Currents Weather Stations Pressure Air Temp Water Temp Dewpoint Dewpoint Depression Visibility Wind Speed Wind Dir Waves Ship Positions

Titania

Last reported at 2018-Jun-20 13:17 UTC. Time now 2018-Jun-20 13:32 UTC.
Position N 10°20' W 075°31'.

Length 22 m; draft 2.8 m.

Type: Tug. MMSI: 730070000.

Date/timePositionNaut miles runAvg speedWind from/ knotsBaromVisibWave heightAir tempDewpointWater temp
2018-Jun-20 13:17N 10°20' W 075°31'1 2.0
2018-Jun-20 13:00N 10°20' W 075°31'0 0.7
2018-Jun-20 12:29N 10°20' W 075°31'3 5.9
2018-Jun-20 11:59N 10°23' W 075°32'1 2.1
2018-Jun-20 11:26N 10°24' W 075°31'0 0.0
2018-Jun-20 10:56N 10°24' W 075°31'0 0.0
2018-Jun-20 10:29N 10°24' W 075°31'0 0.0
2018-Jun-20 09:59N 10°24' W 075°31'0 0.0
2018-Jun-20 09:26N 10°24' W 075°31'0 0.0
2018-Jun-20 08:59N 10°24' W 075°31'0 0.0
2018-Jun-20 08:29N 10°24' W 075°31'0 0.0
2018-Jun-20 07:59N 10°24' W 075°31'0 0.0
2018-Jun-20 07:29N 10°24' W 075°31'0 0.0
2018-Jun-20 06:56N 10°24' W 075°31'1 1.4
2018-Jun-20 06:30N 10°24' W 075°32'4 7.6
2018-Jun-20 06:00N 10°20' W 075°31'1 1.3
2018-Jun-20 05:30N 10°20' W 075°31'1 2.6
2018-Jun-20 05:01N 10°21' W 075°31'3 6.2
2018-Jun-20 04:29N 10°24' W 075°31'0 0.0
2018-Jun-20 03:47N 10°24' W 075°31'0 0.0
2018-Jun-20 03:26N 10°24' W 075°31'0 0.0
2018-Jun-20 02:44N 10°24' W 075°31'0 0.0
2018-Jun-20 02:29N 10°24' W 075°31'0 0.0
2018-Jun-20 01:56N 10°24' W 075°31'1 2.9
2018-Jun-20 01:30N 10°23' W 075°32'4 7.8
2018-Jun-20 00:58N 10°19' W 075°31'0 0.5
2018-Jun-20 00:29N 10°19' W 075°31'0 0.0
2018-Jun-19 23:59N 10°19' W 075°31'0 0.0
2018-Jun-19 23:29N 10°19' W 075°31'0 0.0
2018-Jun-19 22:59N 10°19' W 075°31'0 0.0
2018-Jun-19 22:29N 10°19' W 075°31'0 0.0
2018-Jun-19 21:59N 10°19' W 075°31'0 0.0
2018-Jun-19 21:29N 10°19' W 075°31'0 0.0
2018-Jun-19 20:59N 10°19' W 075°31'0 0.0
2018-Jun-19 20:29N 10°19' W 075°31'0 0.0
2018-Jun-19 19:59N 10°19' W 075°31'0 0.0
2018-Jun-19 19:29N 10°19' W 075°31'0 0.0
2018-Jun-19 18:59N 10°19' W 075°31'0 0.0
2018-Jun-19 18:29N 10°19' W 075°31'0 0.0
2018-Jun-19 17:59N 10°19' W 075°31'0 0.0
2018-Jun-19 17:29N 10°19' W 075°31'0 0.0
2018-Jun-19 16:59N 10°19' W 075°31'0 0.0
2018-Jun-19 16:29N 10°19' W 075°31'0 0.0
2018-Jun-19 15:59N 10°19' W 075°31'0 0.0
2018-Jun-19 15:29N 10°19' W 075°31'0 0.0
2018-Jun-19 14:59N 10°19' W 075°31'0 0.0
2018-Jun-19 14:29N 10°19' W 075°31'0 0.0
2018-Jun-19 13:59N 10°19' W 075°31'0 0.0
2018-Jun-19 13:29N 10°19' W 075°31'0 0.0
2018-Jun-19 12:59N 10°19' W 075°31'0 0.0
2018-Jun-19 12:29N 10°19' W 075°31'0 0.0
2018-Jun-19 11:59N 10°19' W 075°31'1 1.9
2018-Jun-19 11:30N 10°18' W 075°30'0 0.7
2018-Jun-19 11:00N 10°19' W 075°31'1 2.2
2018-Jun-19 10:30N 10°20' W 075°31'3 6.7
2018-Jun-19 09:59N 10°23' W 075°32'1 0.2
2018-Jun-19 02:48N 10°24' W 075°31'2 4.6
2018-Jun-19 02:27N 10°22' W 075°32'3 6.4
2018-Jun-19 01:59N 10°20' W 075°31'0 0.2
2018-Jun-19 01:25N 10°20' W 075°31'1 2.5
2018-Jun-19 01:00N 10°19' W 075°31'0 0.3
2018-Jun-19 00:28N 10°19' W 075°31'0 0.0
2018-Jun-18 23:58N 10°19' W 075°31'0 0.0
2018-Jun-18 23:28N 10°19' W 075°31'0 0.0
2018-Jun-18 22:58N 10°19' W 075°31'0 0.0
2018-Jun-18 22:28N 10°19' W 075°31'0 0.0
2018-Jun-18 21:58N 10°19' W 075°31'0 0.0
2018-Jun-18 21:28N 10°19' W 075°31'0 0.0
2018-Jun-18 20:58N 10°19' W 075°31'0 0.0
2018-Jun-18 20:28N 10°19' W 075°31'0 0.0
2018-Jun-18 19:58N 10°19' W 075°31'0 0.0
2018-Jun-18 19:28N 10°19' W 075°31'0 0.0
2018-Jun-18 18:58N 10°19' W 075°31'0 0.0
2018-Jun-18 18:28N 10°19' W 075°31'0 0.0
2018-Jun-18 17:58N 10°19' W 075°31'0 0.0
2018-Jun-18 17:28N 10°19' W 075°31'0 0.0
2018-Jun-18 16:58N 10°19' W 075°31'0 0.0
2018-Jun-18 16:28N 10°19' W 075°31'0 0.0
2018-Jun-18 15:58N 10°19' W 075°31'0 0.0
2018-Jun-18 15:28N 10°19' W 075°31'0 0.0
2018-Jun-18 14:58N 10°19' W 075°31'0 0.0
2018-Jun-18 14:28N 10°19' W 075°31'0 1.0
2018-Jun-18 14:00N 10°19' W 075°31'1 1.0
2018-Jun-18 13:28N 10°18' W 075°30'2 5.1
2018-Jun-18 13:00N 10°20' W 075°31'4 7.5
2018-Jun-18 12:30N 10°24' W 075°32'0 0.8
2018-Jun-18 11:56N 10°24' W 075°31'0 0.0
2018-Jun-18 11:20N 10°24' W 075°31'0 0.0
2018-Jun-18 10:59N 10°24' W 075°31'0 0.0
2018-Jun-18 10:20N 10°24' W 075°31'0 0.0
2018-Jun-18 09:56N 10°24' W 075°31'0 0.0
2018-Jun-18 09:23N 10°24' W 075°31'0 0.0
2018-Jun-18 08:32N 10°24' W 075°31'0 0.0
2018-Jun-18 07:35N 10°24' W 075°31'0 0.0
2018-Jun-18 07:23N 10°24' W 075°31'0 0.0
2018-Jun-18 06:56N 10°24' W 075°31'0 0.0
2018-Jun-18 06:08N 10°24' W 075°31'0 0.0
2018-Jun-18 05:59N 10°24' W 075°31'0 0.0
2018-Jun-18 05:26N 10°24' W 075°31'0 0.0
2018-Jun-18 04:56N 10°24' W 075°31'0 0.0
2018-Jun-18 04:29N 10°24' W 075°31'0 0.0
2018-Jun-18 03:59N 10°24' W 075°31'0 0.0
2018-Jun-18 03:29N 10°24' W 075°31'0 0.0
2018-Jun-18 02:53N 10°24' W 075°31'0 0.0
2018-Jun-18 02:26N 10°24' W 075°31'0 0.0
2018-Jun-18 01:50N 10°24' W 075°31'2 4.7
2018-Jun-18 01:28N 10°22' W 075°32'3 5.4
2018-Jun-18 00:58N 10°20' W 075°31'0 0.0
2018-Jun-18 00:28N 10°20' W 075°31'0 0.0
2018-Jun-17 23:58N 10°20' W 075°31'0 0.0
2018-Jun-17 23:28N 10°20' W 075°31'0 0.0
2018-Jun-17 22:58N 10°20' W 075°31'0 0.0
2018-Jun-17 22:28N 10°20' W 075°31'0 0.0
2018-Jun-17 21:58N 10°20' W 075°31'0 0.0
2018-Jun-17 21:28N 10°20' W 075°31'0 0.0
2018-Jun-17 20:58N 10°20' W 075°31'0 0.0
2018-Jun-17 20:28N 10°20' W 075°31'0 0.0
2018-Jun-17 19:58N 10°20' W 075°31'0 0.0
2018-Jun-17 19:28N 10°20' W 075°31'0 0.0
2018-Jun-17 18:58N 10°20' W 075°31'0 0.0
2018-Jun-17 18:28N 10°20' W 075°31'0 0.5
2018-Jun-17 18:00N 10°20' W 075°31'  
2018-Jun-14 09:20N 10°24' W 075°31'1 1.9
2018-Jun-14 08:58N 10°24' W 075°32'4 8.2
2018-Jun-14 08:30N 10°20' W 075°31'2 3.8
2018-Jun-14 08:00N 10°18' W 075°30'4 7.1
2018-Jun-14 07:30N 10°22' W 075°32'2 1.2
2018-Jun-14 05:36N 10°24' W 075°31'0 0.0
2018-Jun-14 05:27N 10°24' W 075°31'0 0.0
2018-Jun-14 05:00N 10°24' W 075°31'0 0.0
2018-Jun-14 04:30N 10°24' W 075°31'0 0.0
2018-Jun-14 03:51N 10°24' W 075°31'0 0.0
2018-Jun-14 03:30N 10°24' W 075°31'0 0.0
2018-Jun-14 02:57N 10°24' W 075°31'0 0.0
2018-Jun-14 02:27N 10°24' W 075°31'0 0.0
2018-Jun-14 01:57N 10°24' W 075°31'0 0.0
2018-Jun-14 01:30N 10°24' W 075°31'0 0.0
2018-Jun-14 00:57N 10°24' W 075°31'0 0.0
2018-Jun-14 00:27N 10°24' W 075°31'0 0.0
2018-Jun-13 23:57N 10°24' W 075°31'0 0.0
2018-Jun-13 23:27N 10°24' W 075°31'0 0.0
2018-Jun-13 22:51N 10°24' W 075°31'0 0.0
2018-Jun-13 22:30N 10°24' W 075°31'0 0.0
2018-Jun-13 21:51N 10°24' W 075°31'0 0.0
2018-Jun-13 21:27N 10°24' W 075°31'0 0.0
2018-Jun-13 20:51N 10°24' W 075°31'0 0.0
2018-Jun-13 20:21N 10°24' W 075°31'0 0.0
2018-Jun-13 19:39N 10°24' W 075°31'0 0.0
2018-Jun-13 19:27N 10°24' W 075°31'0 0.0
2018-Jun-13 18:57N 10°24' W 075°31'0 0.0
2018-Jun-13 18:27N 10°24' W 075°31'0 0.0
2018-Jun-13 17:57N 10°24' W 075°31'0 0.0
2018-Jun-13 17:21N 10°24' W 075°31'0 0.4
2018-Jun-13 16:58N 10°24' W 075°32'3 6.9
2018-Jun-13 16:30N 10°21' W 075°31'3 4.8
2018-Jun-13 15:59N 10°18' W 075°30'1 1.7
2018-Jun-13 15:28N 10°19' W 075°31'0 1.0
2018-Jun-13 14:58N 10°20' W 075°31'0 0.8
2018-Jun-13 14:29N 10°20' W 075°31'0 0.5
2018-Jun-13 13:59N 10°20' W 075°31'0 0.7
2018-Jun-13 13:29N 10°20' W 075°31'0 0.5
2018-Jun-13 12:56N 10°20' W 075°31'1 2.7
2018-Jun-13 12:29N 10°21' W 075°31'3 6.6
2018-Jun-13 12:00N 10°24' W 075°32'1 2.1
2018-Jun-13 11:29N 10°24' W 075°32'0 0.0
2018-Jun-13 10:59N 10°24' W 075°32'0 0.0
2018-Jun-13 10:29N 10°24' W 075°32'0 0.0
2018-Jun-13 09:59N 10°24' W 075°32'0 0.0
2018-Jun-13 09:29N 10°24' W 075°32'0 0.0
2018-Jun-13 08:59N 10°24' W 075°32'0 0.0
2018-Jun-13 08:29N 10°24' W 075°32'0 0.0
2018-Jun-13 07:59N 10°24' W 075°32'0 0.0
2018-Jun-13 07:29N 10°24' W 075°32'0 0.0
2018-Jun-13 06:59N 10°24' W 075°32'0 0.0
2018-Jun-13 06:29N 10°24' W 075°32'0 0.0
2018-Jun-13 05:59N 10°24' W 075°32'0 0.0
2018-Jun-13 05:29N 10°24' W 075°32'0 0.0
2018-Jun-13 04:53N 10°24' W 075°32'0 0.0
2018-Jun-13 04:29N 10°24' W 075°32'0 0.0
2018-Jun-13 03:59N 10°24' W 075°32'0 0.0
2018-Jun-13 03:26N 10°24' W 075°32'0 0.0
2018-Jun-13 02:59N 10°24' W 075°32'0 0.0
2018-Jun-13 02:29N 10°24' W 075°32'0 0.0
2018-Jun-13 01:59N 10°24' W 075°32'0 0.0
2018-Jun-13 01:29N 10°24' W 075°32'0 0.0
2018-Jun-13 00:59N 10°24' W 075°32'0 0.0
2018-Jun-13 00:29N 10°24' W 075°32'0 0.0
2018-Jun-12 23:59N 10°24' W 075°32'0 0.0
2018-Jun-12 23:29N 10°24' W 075°32'0 0.0
2018-Jun-12 23:00N 10°24' W 075°32'0 0.1
2018-Jun-12 21:42N 10°24' W 075°33'0 0.0
2018-Jun-12 21:18N 10°24' W 075°33'0 0.0
2018-Jun-12 21:00N 10°24' W 075°33'0 0.0
2018-Jun-12 20:27N 10°24' W 075°33'0 0.0
2018-Jun-12 20:00N 10°24' W 075°33'0 0.0
2018-Jun-12 19:24N 10°24' W 075°33'0 0.0
2018-Jun-12 18:51N 10°24' W 075°33'0 0.0
2018-Jun-12 18:30N 10°24' W 075°33'0 0.0
2018-Jun-12 18:00N 10°24' W 075°33'0 1.0
2018-Jun-12 17:30N 10°24' W 075°32'1 1.3
2018-Jun-12 16:55N 10°24' W 075°31'0 0.0
2018-Jun-12 16:30N 10°24' W 075°31'0 0.1
2018-Jun-12 15:58N 10°24' W 075°31'4 1.6
2018-Jun-12 13:19N 10°20' W 075°31'1 2.5
2018-Jun-12 13:00N 10°20' W 075°31'1 2.6
2018-Jun-12 12:29N 10°19' W 075°31'0 0.5
2018-Jun-12 11:57N 10°18' W 075°31'0 0.0
2018-Jun-12 11:30N 10°18' W 075°31'0 0.0
2018-Jun-12 11:00N 10°18' W 075°31'0 0.0
2018-Jun-12 10:30N 10°18' W 075°31'0 0.0
2018-Jun-12 10:00N 10°18' W 075°31'0 0.0
2018-Jun-12 09:30N 10°18' W 075°31'0 0.0
2018-Jun-12 09:00N 10°18' W 075°31'0 0.0
2018-Jun-12 08:30N 10°18' W 075°31'0 0.0
2018-Jun-12 07:57N 10°18' W 075°31'0 0.0
2018-Jun-12 07:27N 10°18' W 075°31'0 0.0
2018-Jun-12 07:00N 10°18' W 075°31'0 0.0
2018-Jun-12 06:27N 10°18' W 075°31'0 0.0
2018-Jun-12 06:00N 10°18' W 075°31'0 0.0
2018-Jun-12 05:27N 10°18' W 075°31'0 0.0
2018-Jun-12 05:00N 10°18' W 075°31'0 0.0
2018-Jun-12 04:30N 10°18' W 075°31'0 0.0
2018-Jun-12 04:00N 10°18' W 075°31'0 0.0
2018-Jun-12 03:30N 10°18' W 075°31'0 0.2
2018-Jun-12 03:00N 10°18' W 075°30'0 0.3
2018-Jun-12 02:30N 10°18' W 075°30'1 1.8
2018-Jun-12 01:58N 10°19' W 075°31'1 1.4
2018-Jun-12 01:31N 10°20' W 075°31'4 8.2
2018-Jun-12 00:59N 10°24' W 075°32'1 0.2
2018-Jun-11 19:46N 10°24' W 075°31'1 5.0
2018-Jun-11 19:30N 10°23' W 075°33'4 7.6
2018-Jun-11 19:00N 10°20' W 075°31'0 0.6
2018-Jun-11 18:28N 10°20' W 075°31'0 0.0
2018-Jun-11 17:58N 10°20' W 075°31'0 0.0
2018-Jun-11 17:28N 10°20' W 075°31'0 0.0
2018-Jun-11 16:58N 10°20' W 075°31'0 0.0
2018-Jun-11 16:28N 10°20' W 075°31'0 0.0
2018-Jun-11 15:58N 10°20' W 075°31'0 0.0
2018-Jun-11 15:28N 10°20' W 075°31'0 0.0
2018-Jun-11 14:58N 10°20' W 075°31'0 0.0
2018-Jun-11 14:28N 10°20' W 075°31'0 0.0
2018-Jun-11 13:58N 10°20' W 075°31'0 0.0
2018-Jun-11 13:28N 10°20' W 075°31'  

Dump ship's entire track history